Time;durP1;ratioP1;P1;durP2;ratioP2;P2;SDS_P1;SDS_P2;PMS_P1;PMS_P2;Temp;Humidity;BMP_temperature;BMP_pressure;BME280_temperature;BME280_humidity;BME280_pressure;Samples;Min_cycle;Max_cycle;Signal;HPM_P1;HPM_P2
2021/06/30 00:00:09;;;;;;;11.22;6.42;;;;;;;19.44;79.69;100615.59;1821441;78;20947;-77
2021/06/30 00:02:37;;;;;;;13.32;6.75;;;;;;;19.46;79.63;100614.95;1821361;78;20935;-75
2021/06/30 00:05:06;;;;;;;16.23;7.12;;;;;;;19.49;79.56;100610.33;1821713;78;21380;-74
2021/06/30 00:07:33;;;;;;;13.18;6.17;;;;;;;19.50;79.59;100617.30;1821375;78;21388;-73
2021/06/30 00:10:02;;;;;;;15.90;7.53;;;;;;;19.52;79.45;100620.66;1821455;78;20848;-74
2021/06/30 00:12:29;;;;;;;7.95;6.45;;;;;;;19.53;79.11;100619.69;1821604;78;21412;-73
2021/06/30 00:14:56;;;;;;;10.30;7.00;;;;;;;19.53;78.89;100616.52;1824767;77;21452;-74
2021/06/30 00:17:23;;;;;;;8.75;6.30;;;;;;;19.54;78.97;100616.02;1824885;77;20844;-73
2021/06/30 00:19:49;;;;;;;18.17;7.37;;;;;;;19.54;78.67;100614.69;1824787;78;20954;-73
2021/06/30 00:22:16;;;;;;;8.43;6.00;;;;;;;19.54;78.46;100620.88;1825109;78;20915;-74
2021/06/30 00:24:43;;;;;;;13.80;6.53;;;;;;;19.56;78.41;100621.53;1824944;77;21119;-74
2021/06/30 00:27:10;;;;;;;11.30;6.53;;;;;;;19.56;78.54;100618.05;1824725;78;20948;-73
2021/06/30 00:29:37;;;;;;;8.90;6.58;;;;;;;19.55;78.65;100620.37;1824844;78;20899;-75
2021/06/30 00:32:06;;;;;;;10.32;7.45;;;;;;;19.54;78.64;100623.53;1824793;77;20911;-75
2021/06/30 00:34:34;;;;;;;13.75;7.35;;;;;;;19.55;78.48;100621.70;1824839;78;20899;-74
2021/06/30 00:37:01;;;;;;;16.82;7.45;;;;;;;19.54;78.55;100616.02;1824900;78;21521;-74
2021/06/30 00:39:27;;;;;;;11.22;7.50;;;;;;;19.53;78.67;100615.70;1824784;77;20891;-74
2021/06/30 00:41:57;;;;;;;13.40;7.87;;;;;;;19.51;78.64;100613.67;1824910;78;21374;-74
2021/06/30 00:44:23;;;;;;;13.28;7.90;;;;;;;19.51;78.54;100613.17;1824894;78;20836;-74
2021/06/30 00:46:50;;;;;;;9.60;6.83;;;;;;;19.50;78.61;100614.17;1824843;77;20908;-74
2021/06/30 00:49:17;;;;;;;18.67;7.40;;;;;;;19.48;78.71;100610.00;1824771;78;21530;-75
2021/06/30 00:51:44;;;;;;;16.07;7.35;;;;;;;19.43;78.72;100605.96;1824825;77;21404;-75
2021/06/30 00:54:11;;;;;;;11.50;7.00;;;;;;;19.34;79.01;100601.55;1824810;77;20856;-74
2021/06/30 00:56:40;;;;;;;10.68;6.62;;;;;;;19.30;79.18;100603.30;1824816;78;20883;-74
2021/06/30 00:59:07;;;;;;;11.80;6.45;;;;;;;19.27;79.54;100599.11;1824924;78;20903;-74
2021/06/30 01:01:34;;;;;;;10.58;6.50;;;;;;;19.29;79.44;100596.31;1824447;77;21073;-74
2021/06/30 01:04:01;;;;;;;14.68;7.40;;;;;;;19.30;79.32;100603.30;1824905;78;20883;-76
2021/06/30 01:06:28;;;;;;;13.43;7.60;;;;;;;19.29;79.29;100606.95;1824757;77;20923;-77
2021/06/30 01:08:55;;;;;;;9.30;6.83;;;;;;;19.28;79.04;100601.30;1824718;77;20958;-75
2021/06/30 01:11:22;;;;;;;9.50;6.72;;;;;;;19.31;78.93;100607.64;1824868;78;20883;-75
2021/06/30 01:13:49;;;;;;;12.30;6.72;;;;;;;19.32;78.98;100612.82;1822859;78;21131;-76
2021/06/30 01:16:16;;;;;;;15.98;7.10;;;;;;;19.32;79.04;100606.64;1821449;78;21420;-77
2021/06/30 01:18:43;;;;;;;10.05;7.62;;;;;;;19.30;78.84;100601.49;1821419;78;20924;-77
2021/06/30 01:21:11;;;;;;;13.90;8.03;;;;;;;19.29;78.84;100601.63;1790088;78;20857;-76
2021/06/30 01:23:40;;;;;;;14.55;8.05;;;;;;;19.28;78.49;100601.30;1821468;78;20884;-77
2021/06/30 01:26:07;;;;;;;12.35;6.80;;;;;;;19.28;78.27;100607.45;1821346;78;22036;-77
2021/06/30 01:28:33;;;;;;;13.75;7.05;;;;;;;19.27;78.27;100607.09;1821302;78;20884;-76
2021/06/30 01:31:00;;;;;;;12.93;7.60;;;;;;;19.29;78.30;100612.27;1821605;78;20950;-78
2021/06/30 01:33:27;;;;;;;7.90;6.85;;;;;;;19.28;78.16;100606.63;1821233;78;20955;-77
2021/06/30 01:35:54;;;;;;;10.72;8.23;;;;;;;19.25;78.35;100612.58;1821524;78;20867;-74
2021/06/30 01:38:25;;;;;;;15.35;7.78;;;;;;;19.22;78.48;100612.03;1821171;78;21136;-76
2021/06/30 01:40:54;;;;;;;13.32;8.73;;;;;;;19.18;78.58;100612.80;1821319;78;21458;-77
2021/06/30 01:43:21;;;;;;;15.23;7.47;;;;;;;19.18;78.65;100619.95;1821383;78;20919;-75
2021/06/30 01:45:53;;;;;;;9.95;7.30;;;;;;;19.18;78.63;100622.11;1821369;78;21480;-75
2021/06/30 01:48:21;;;;;;;12.23;7.10;;;;;;;19.17;78.59;100619.13;1821336;78;21410;-75
2021/06/30 01:50:49;;;;;;;12.68;7.05;;;;;;;19.17;78.59;100628.92;1821441;78;21132;-76
2021/06/30 01:53:17;;;;;;;13.68;6.70;;;;;;;19.15;78.45;100626.91;1821248;78;21436;-75
2021/06/30 01:55:45;;;;;;;9.98;6.50;;;;;;;19.13;78.42;100631.03;1821333;78;20844;-76
2021/06/30 01:58:12;;;;;;;16.23;6.45;;;;;;;19.10;78.45;100634.00;1821372;78;20895;-76
2021/06/30 02:00:38;;;;;;;10.43;5.75;;;;;;;19.11;78.54;100632.16;1821417;78;21448;-77
2021/06/30 02:03:06;;;;;;;7.03;6.33;;;;;;;19.10;78.44;100628.68;1821254;78;22058;-77
2021/06/30 02:05:35;;;;;;;13.70;6.00;;;;;;;19.11;78.56;100634.83;1821250;78;21338;-75
2021/06/30 02:08:02;;;;;;;8.23;5.50;;;;;;;19.11;78.54;100644.95;1821578;78;20910;-75
2021/06/30 02:10:30;;;;;;;8.33;5.95;;;;;;;19.09;78.15;100646.92;1821376;78;21392;-76
2021/06/30 02:12:57;;;;;;;11.25;5.45;;;;;;;19.12;78.13;100653.30;1821592;78;20951;-76
2021/06/30 02:15:27;;;;;;;10.05;5.72;;;;;;;19.10;78.02;100650.41;1821502;78;21878;-77
2021/06/30 02:17:57;;;;;;;9.15;5.90;;;;;;;19.07;78.25;100652.05;1821328;78;21496;-75
2021/06/30 02:20:24;;;;;;;7.85;5.40;;;;;;;19.04;78.77;100646.53;1821520;78;20922;-74
2021/06/30 02:22:52;;;;;;;9.05;6.08;;;;;;;19.07;78.83;100653.38;1821495;78;20903;-75
2021/06/30 02:25:25;;;;;;;8.18;5.22;;;;;;;19.10;78.65;100655.27;1821373;78;20939;-74
2021/06/30 02:27:52;;;;;;;9.53;5.53;;;;;;;19.14;78.44;100650.47;1821644;78;21144;-74
2021/06/30 02:30:26;;;;;;;5.45;4.85;;;;;;;19.18;77.15;100650.52;1821251;78;20948;-75
2021/06/30 02:32:53;;;;;;;7.30;4.80;;;;;;;19.22;76.38;100658.05;1821739;78;20887;-75
2021/06/30 02:35:21;;;;;;;9.65;5.15;;;;;;;19.27;75.85;100650.97;1821533;78;20958;-74
2021/06/30 02:37:49;;;;;;;9.23;4.55;;;;;;;19.31;75.77;100652.34;1821858;78;20864;-75
2021/06/30 02:40:17;;;;;;;6.40;5.45;;;;;;;19.34;75.38;100654.73;1821494;78;21125;-75
2021/06/30 02:42:46;;;;;;;12.98;5.30;;;;;;;19.36;74.96;100654.06;1821674;78;21050;-73
2021/06/30 02:45:14;;;;;;;6.15;5.55;;;;;;;19.38;74.83;100657.41;1821517;78;20892;-74
2021/06/30 02:47:42;;;;;;;6.47;5.55;;;;;;;19.39;74.56;100651.63;1821697;78;20927;-75
2021/06/30 02:50:12;;;;;;;9.30;4.90;;;;;;;19.41;74.44;100656.30;1821387;78;20922;-78
2021/06/30 02:52:41;;;;;;;8.73;5.33;;;;;;;19.43;74.16;100649.84;1821413;78;20907;-77
2021/06/30 02:55:09;;;;;;;4.75;4.35;;;;;;;19.48;74.21;100657.37;1821543;78;20966;-78
2021/06/30 02:57:36;;;;;;;7.47;4.78;;;;;;;19.53;74.27;100654.27;1821851;78;20963;-77
2021/06/30 03:00:12;;;;;;;8.18;4.20;;;;;;;19.57;74.49;100656.98;1821457;78;20899;-76
2021/06/30 03:02:39;;;;;;;5.15;4.75;;;;;;;19.61;74.83;100659.69;1821444;78;20962;-78
2021/06/30 03:05:07;;;;;;;5.62;5.05;;;;;;;19.61;74.81;100661.84;1821498;78;21013;-78
2021/06/30 03:07:34;;;;;;;12.70;4.97;;;;;;;19.65;75.08;100668.55;1821418;78;21401;-77
2021/06/30 03:10:01;;;;;;;10.20;4.65;;;;;;;19.68;75.48;100672.23;1821503;78;20900;-76
2021/06/30 03:12:28;;;;;;;5.53;4.55;;;;;;;19.75;75.99;100669.83;1821633;78;21408;-78
2021/06/30 03:14:56;;;;;;;7.95;6.03;;;;;;;19.80;76.19;100670.70;1821491;78;20919;-79
2021/06/30 03:17:25;;;;;;;6.12;4.62;;;;;;;19.87;76.08;100671.27;1821551;78;22473;-78
2021/06/30 03:19:52;;;;;;;12.10;4.80;;;;;;;19.94;76.24;100666.68;1821532;78;20876;-79
2021/06/30 03:22:20;;;;;;;6.87;5.33;;;;;;;20.02;75.98;100666.77;1821550;78;20899;-80
2021/06/30 03:24:47;;;;;;;7.87;5.17;;;;;;;20.09;75.78;100665.16;1821881;78;20920;-81
2021/06/30 03:27:15;;;;;;;7.78;6.28;;;;;;;20.15;75.83;100663.72;1822027;78;21009;-80
2021/06/30 03:29:42;;;;;;;10.58;6.75;;;;;;;20.21;75.36;100659.95;1822015;78;21152;-80
2021/06/30 03:32:09;;;;;;;5.35;4.85;;;;;;;20.27;75.00;100671.80;1821606;78;20880;-78
2021/06/30 03:34:35;;;;;;;5.58;5.00;;;;;;;20.32;74.45;100672.67;1821626;78;21772;-78
2021/06/30 03:37:03;;;;;;;5.50;5.10;;;;;;;20.38;74.10;100674.72;1821404;78;21447;-77
2021/06/30 03:39:29;;;;;;;8.68;5.90;;;;;;;20.41;74.00;100672.59;1821774;78;20907;-78
2021/06/30 03:41:57;;;;;;;6.08;5.58;;;;;;;20.46;73.47;100673.47;1821493;78;21108;-77
2021/06/30 03:44:24;;;;;;;7.62;4.87;;;;;;;20.50;73.35;100671.66;1821600;78;20887;-77
2021/06/30 03:46:52;;;;;;;8.60;5.97;;;;;;;20.55;73.40;100665.86;1821411;78;21388;-76
2021/06/30 03:49:19;;;;;;;10.85;5.75;;;;;;;20.59;73.36;100669.09;1821364;78;21068;-77
2021/06/30 03:51:46;;;;;;;8.48;4.85;;;;;;;20.63;73.26;100672.62;1821503;78;21412;-77
2021/06/30 03:54:13;;;;;;;14.58;5.42;;;;;;;20.71;73.08;100674.49;1821764;78;21740;-77
2021/06/30 03:56:40;;;;;;;9.33;5.72;;;;;;;20.78;73.05;100666.20;1821648;78;20927;-79
2021/06/30 03:59:06;;;;;;;12.88;5.67;;;;;;;20.87;72.96;100665.76;1822207;78;20903;-78
2021/06/30 04:01:35;;;;;;;9.73;5.62;;;;;;;20.98;72.82;100668.15;1821609;78;21338;-77
2021/06/30 04:04:06;;;;;;;10.48;6.10;;;;;;;21.13;72.99;100672.91;1821514;78;21029;-76
2021/06/30 04:06:31;;;;;;;13.75;7.17;;;;;;;21.23;73.05;100669.12;1821205;78;21315;-76
2021/06/30 04:08:59;;;;;;;10.28;6.95;;;;;;;21.34;72.93;100675.97;1821609;78;20971;-76
2021/06/30 04:11:26;;;;;;;11.30;9.00;;;;;;;21.51;72.84;100668.91;1821980;78;21014;-79
2021/06/30 04:13:53;;;;;;;18.15;10.30;;;;;;;21.84;72.11;100668.99;1821421;78;20908;-76
2021/06/30 04:16:20;;;;;;;14.18;10.65;;;;;;;22.33;70.75;100665.88;1821588;78;20907;-78
2021/06/30 04:18:46;;;;;;;18.55;11.80;;;;;;;22.88;69.28;100665.63;1821713;78;21082;-76
2021/06/30 04:21:13;;;;;;;20.70;12.95;;;;;;;23.46;67.41;100665.45;1821564;78;20915;-77
2021/06/30 04:23:40;;;;;;;18.12;12.10;;;;;;;24.03;65.54;100673.64;1821770;78;21390;-77
2021/06/30 04:26:07;;;;;;;15.88;10.32;;;;;;;24.56;63.58;100664.66;1821344;78;20998;-78
2021/06/30 04:28:35;;;;;;;14.35;9.55;;;;;;;25.11;62.07;100675.16;1821344;78;21359;-76
2021/06/30 04:31:02;;;;;;;13.65;8.58;;;;;;;25.59;60.39;100673.73;1821399;78;21138;-76
2021/06/30 04:33:30;;;;;;;18.62;9.15;;;;;;;26.07;59.17;100677.23;1821421;78;20986;-76
2021/06/30 04:35:58;;;;;;;13.28;6.65;;;;;;;26.48;58.16;100676.57;1821495;78;21421;-77
2021/06/30 04:38:26;;;;;;;16.07;6.22;;;;;;;26.85;56.82;100678.08;1821375;78;20922;-76
2021/06/30 04:40:54;;;;;;;10.05;6.22;;;;;;;27.21;55.79;100677.08;1821791;78;21448;-78
2021/06/30 04:43:21;;;;;;;13.03;6.35;;;;;;;27.58;54.94;100669.54;1821673;78;21056;-77
2021/06/30 04:45:50;;;;;;;9.40;5.47;;;;;;;27.91;53.84;100678.25;1821315;78;20864;-78
2021/06/30 04:48:18;;;;;;;9.33;6.12;;;;;;;28.21;53.22;100680.56;1821487;78;20959;-74
2021/06/30 04:50:45;;;;;;;9.50;5.60;;;;;;;28.48;52.43;100680.06;1821552;78;20896;-79
2021/06/30 04:53:13;;;;;;;8.18;6.12;;;;;;;28.73;52.11;100677.03;1821553;78;20879;-78
2021/06/30 04:55:41;;;;;;;10.85;5.65;;;;;;;28.97;51.25;100677.41;1821424;78;21085;-79
2021/06/30 04:58:08;;;;;;;14.00;6.35;;;;;;;29.18;50.78;100677.67;1821699;78;21437;-78
2021/06/30 05:00:35;;;;;;;17.30;6.33;;;;;;;29.42;50.31;100676.66;1821284;78;20856;-79
2021/06/30 05:03:05;;;;;;;7.28;5.42;;;;;;;29.63;49.70;100680.37;1821586;78;20872;-77
2021/06/30 05:05:34;;;;;;;13.53;7.83;;;;;;;29.86;48.83;100673.60;1821295;78;20871;-79
2021/06/30 05:08:02;;;;;;;10.82;7.40;;;;;;;30.08;48.36;100684.89;1821634;78;21068;-77
2021/06/30 05:10:29;;;;;;;8.45;7.40;;;;;;;30.31;47.52;100682.47;1821242;78;20880;-79
2021/06/30 05:12:58;;;;;;;8.00;7.15;;;;;;;30.52;47.34;100683.11;1821279;78;21025;-78
2021/06/30 05:15:25;;;;;;;18.10;6.78;;;;;;;30.75;46.37;100676.55;1821181;78;20856;-78
2021/06/30 05:17:56;;;;;;;7.83;6.42;;;;;;;30.96;46.03;100678.00;1821586;78;21069;-77
2021/06/30 05:20:23;;;;;;;12.90;6.75;;;;;;;31.19;45.33;100669.71;1821790;78;21258;-81
2021/06/30 05:22:52;;;;;;;16.73;7.92;;;;;;;31.38;44.88;100668.64;1821708;78;20943;-76
2021/06/30 05:25:19;;;;;;;11.38;7.83;;;;;;;31.62;44.29;100667.93;1820990;78;20982;-74
2021/06/30 05:27:47;;;;;;;14.35;7.22;;;;;;;31.81;43.88;100670.35;1821425;78;21038;-77
2021/06/30 05:30:17;;;;;;;16.67;8.10;;;;;;;32.03;43.77;100671.75;1821015;78;20857;-77
2021/06/30 05:32:49;;;;;;;12.18;8.80;;;;;;;32.18;43.49;100672.13;1821582;78;21156;-78
2021/06/30 05:35:21;;;;;;;14.25;9.23;;;;;;;32.31;43.14;100675.98;1821468;78;20951;-77
2021/06/30 05:37:47;;;;;;;14.47;10.43;;;;;;;32.49;42.90;100672.86;1813156;78;20955;-76
2021/06/30 05:40:17;;;;;;;19.10;11.40;;;;;;;32.65;42.87;100678.14;1788914;79;20931;-75
2021/06/30 05:42:45;;;;;;;20.02;11.60;;;;;;;32.77;42.45;100680.30;1789112;79;21349;-72
2021/06/30 05:45:16;;;;;;;27.87;16.52;;;;;;;32.91;41.89;100676.28;1788967;80;21532;-72
2021/06/30 05:48:10;;;;;;;26.25;19.40;;;;;;;33.08;41.50;100678.27;1788770;79;20891;-72
2021/06/30 05:54:20;;;;;;;26.07;20.62;;;;;;;33.41;40.04;100682.48;1788723;80;20915;-72
2021/06/30 05:56:48;;;;;;;33.75;20.20;;;;;;;33.60;40.43;100684.52;1789122;80;20869;-71
2021/06/30 05:59:15;;;;;;;26.35;19.77;;;;;;;33.71;40.06;100676.55;1789079;80;21951;-70
2021/06/30 06:01:42;;;;;;;28.07;19.42;;;;;;;33.81;39.92;100674.81;1789001;79;20844;-71
2021/06/30 06:04:09;;;;;;;27.20;20.08;;;;;;;33.90;39.55;100672.52;1789065;79;20938;-73
2021/06/30 06:06:36;;;;;;;30.50;19.32;;;;;;;34.00;39.57;100675.42;1788852;80;21002;-73
2021/06/30 06:09:03;;;;;;;27.70;18.37;;;;;;;34.08;39.42;100678.80;1789034;80;21377;-73
2021/06/30 06:11:30;;;;;;;31.27;21.57;;;;;;;34.17;38.92;100672.72;1788920;80;21154;-73
2021/06/30 06:13:57;;;;;;;30.68;19.42;;;;;;;34.25;38.54;100668.78;1789069;79;20923;-72
2021/06/30 06:16:23;;;;;;;33.42;19.85;;;;;;;34.38;38.63;100663.53;1788920;79;20954;-72
2021/06/30 06:18:51;;;;;;;29.37;18.15;;;;;;;34.51;38.59;100662.34;1788904;80;21378;-72
2021/06/30 06:21:18;;;;;;;27.00;16.00;;;;;;;34.63;39.09;100662.56;1788975;80;20963;-72
2021/06/30 06:23:45;;;;;;;19.70;13.18;;;;;;;34.67;38.05;100658.27;1789065;79;21967;-72
2021/06/30 06:26:12;;;;;;;17.25;13.05;;;;;;;34.73;37.91;100661.89;1789260;79;20895;-72
2021/06/30 06:29:49;;;;;;;19.42;11.22;;;;;;;34.91;38.17;100657.19;1798542;79;22778;-72
2021/06/30 06:32:14;;;;;;;18.25;10.23;;;;;;;34.90;37.74;100659.64;1758101;80;20923;-72
2021/06/30 06:34:41;;;;;;;16.42;9.60;;;;;;;34.96;38.14;100659.45;1758406;80;21117;-74
2021/06/30 06:37:12;;;;;;;14.78;8.23;;;;;;;35.06;37.89;100649.20;1758199;81;20901;-75
2021/06/30 06:39:38;;;;;;;12.47;7.80;;;;;;;35.24;37.76;100657.11;1758237;80;21520;-72
2021/06/30 06:42:06;;;;;;;9.70;7.28;;;;;;;35.43;37.43;100655.39;1758348;80;20927;-73
2021/06/30 06:44:39;;;;;;;10.50;7.08;;;;;;;35.52;37.38;100657.93;1758404;81;20915;-74
2021/06/30 06:47:06;;;;;;;11.33;6.62;;;;;;;35.57;36.50;100663.43;1758395;81;21088;-74
2021/06/30 06:49:33;;;;;;;7.58;6.55;;;;;;;35.61;36.89;100663.20;1758158;81;20916;-75
2021/06/30 06:52:01;;;;;;;8.65;6.85;;;;;;;35.69;36.52;100658.69;1758698;81;20971;-75
2021/06/30 06:54:28;;;;;;;10.48;8.70;;;;;;;35.77;36.25;100657.37;1758153;81;20975;-76
2021/06/30 06:56:55;;;;;;;11.63;7.50;;;;;;;35.89;36.00;100655.31;1758217;80;20884;-76
2021/06/30 06:59:22;;;;;;;11.38;9.13;;;;;;;36.05;35.56;100652.71;1758352;81;21116;-77
2021/06/30 07:01:50;;;;;;;11.35;8.58;;;;;;;36.14;35.58;100659.36;1758301;81;20936;-78
2021/06/30 07:04:17;;;;;;;10.50;8.73;;;;;;;36.28;35.19;100656.45;1758281;80;20939;-83
2021/06/30 07:06:44;;;;;;;8.35;7.55;;;;;;;36.44;35.08;100655.18;1758252;80;21469;-78
2021/06/30 07:09:11;;;;;;;6.80;6.12;;;;;;;36.58;34.45;100651.47;1758292;81;20947;-78
2021/06/30 07:11:40;;;;;;;9.08;4.80;;;;;;;36.74;33.82;100653.76;1758277;81;20879;-77
2021/06/30 07:14:06;;;;;;;7.35;4.42;;;;;;;36.85;34.02;100658.18;1758608;81;20880;-76
2021/06/30 07:16:35;;;;;;;5.15;3.95;;;;;;;36.95;33.51;100654.11;1758515;80;20880;-73
2021/06/30 07:19:02;;;;;;;6.47;4.35;;;;;;;37.06;33.08;100654.42;1758381;81;20865;-79
2021/06/30 07:21:29;;;;;;;7.45;5.75;;;;;;;37.20;33.51;100658.05;1758585;81;21441;-79
2021/06/30 07:23:56;;;;;;;6.05;4.22;;;;;;;37.25;33.76;100652.61;1758387;81;21051;-81
2021/06/30 07:26:23;;;;;;;5.45;3.60;;;;;;;37.32;33.01;100659.45;1758584;81;20932;-81
2021/06/30 07:28:52;;;;;;;5.40;3.77;;;;;;;37.33;33.23;100658.91;1751297;81;20941;-80
2021/06/30 07:31:21;;;;;;;5.50;4.10;;;;;;;37.34;32.50;100660.56;1709355;82;20932;-79
2021/06/30 07:33:49;;;;;;;8.40;3.72;;;;;;;37.40;32.27;100657.28;1709407;82;20964;-78
2021/06/30 07:36:17;;;;;;;4.62;4.00;;;;;;;37.46;32.92;100658.39;1709477;83;21877;-75
2021/06/30 07:38:45;;;;;;;6.42;4.35;;;;;;;37.36;33.23;100656.20;1709338;82;20912;-76
2021/06/30 07:41:12;;;;;;;6.17;5.05;;;;;;;37.17;34.24;100654.50;1708897;84;20979;-79
2021/06/30 07:43:39;;;;;;;8.23;4.87;;;;;;;36.97;33.91;100653.84;1709000;82;20901;-79
2021/06/30 07:46:06;;;;;;;6.62;4.22;;;;;;;36.69;34.45;100646.36;1709134;82;21539;-73
2021/06/30 07:48:33;;;;;;;5.12;4.30;;;;;;;36.28;34.37;100649.62;1708901;84;21477;-76
2021/06/30 07:51:00;;;;;;;5.25;3.90;;;;;;;36.02;35.29;100647.75;1708977;83;20896;-78
2021/06/30 07:53:26;;;;;;;6.17;4.30;;;;;;;35.62;34.87;100651.25;1744598;80;21430;-76
2021/06/30 07:55:53;;;;;;;6.00;4.70;;;;;;;35.37;35.81;100647.67;1745059;81;20904;-76
2021/06/30 07:58:20;;;;;;;6.17;4.12;;;;;;;34.89;36.60;100639.75;1708968;84;20964;-75
2021/06/30 08:00:48;;;;;;;5.12;4.53;;;;;;;34.47;36.88;100647.05;1709168;83;21527;-74
2021/06/30 08:03:15;;;;;;;8.05;4.72;;;;;;;33.99;36.96;100647.91;1708751;84;20930;-74
2021/06/30 08:05:43;;;;;;;8.58;4.92;;;;;;;33.85;38.01;100639.25;1708766;84;21378;-74
2021/06/30 08:08:10;;;;;;;12.30;4.85;;;;;;;33.48;36.96;100641.55;1708803;82;20912;-77
2021/06/30 08:10:37;;;;;;;10.25;5.05;;;;;;;33.21;37.73;100637.23;1708895;82;20881;-75
2021/06/30 08:13:03;;;;;;;6.30;5.20;;;;;;;32.94;39.21;100640.47;1708786;84;21125;-77
2021/06/30 08:15:30;;;;;;;8.03;5.28;;;;;;;32.71;40.48;100644.61;1708822;82;21486;-78
2021/06/30 08:17:57;;;;;;;5.05;4.65;;;;;;;32.55;41.22;100642.91;1708858;84;20964;-75
2021/06/30 08:20:24;;;;;;;4.87;4.40;;;;;;;32.54;41.56;100643.14;1709048;84;20932;-76
2021/06/30 08:22:51;;;;;;;7.83;4.15;;;;;;;32.30;40.17;100637.66;1708650;84;20892;-77
2021/06/30 08:25:19;;;;;;;4.67;3.90;;;;;;;32.55;39.79;100642.91;1708851;82;21246;-76
2021/06/30 08:27:46;;;;;;;6.03;3.98;;;;;;;32.50;39.83;100644.09;1708998;84;21402;-75
2021/06/30 08:30:13;;;;;;;6.15;4.15;;;;;;;32.39;39.20;100636.78;1708762;83;20987;-75
2021/06/30 08:32:43;;;;;;;4.53;3.42;;;;;;;32.30;38.72;100640.38;1709234;82;20988;-75
2021/06/30 08:35:10;;;;;;;3.60;3.10;;;;;;;32.28;38.27;100637.07;1708899;84;20923;-75
2021/06/30 08:37:43;;;;;;;5.15;3.22;;;;;;;32.43;39.00;100643.40;1709027;84;21118;-76
2021/06/30 08:40:10;;;;;;;2.87;2.55;;;;;;;32.68;38.11;100640.45;1708722;83;20992;-76
2021/06/30 08:42:39;;;;;;;4.12;2.67;;;;;;;32.79;36.33;100639.64;1709061;82;20919;-80
2021/06/30 08:45:07;;;;;;;5.53;3.15;;;;;;;33.15;36.60;100641.76;1734419;82;20956;-79
2021/06/30 08:47:35;;;;;;;3.90;3.25;;;;;;;33.26;36.58;100637.86;1744888;82;20925;-80
2021/06/30 08:50:07;;;;;;;3.60;3.30;;;;;;;33.50;36.16;100638.59;1744737;82;21123;-80
2021/06/30 08:52:35;;;;;;;9.00;4.25;;;;;;;33.81;35.39;100642.17;1744763;82;21432;-78
2021/06/30 08:55:04;;;;;;;4.85;3.62;;;;;;;34.20;35.08;100630.59;1744568;82;20964;-77
2021/06/30 08:57:33;;;;;;;5.97;3.65;;;;;;;34.57;34.91;100643.09;1744658;81;20951;-76
2021/06/30 09:00:00;;;;;;;5.40;3.75;;;;;;;34.85;34.21;100636.70;1744588;81;20996;-71
2021/06/30 09:02:27;;;;;;;4.53;3.52;;;;;;;35.04;33.73;100630.91;1744916;82;22148;-75
2021/06/30 09:05:12;;;;;;;4.92;4.08;;;;;;;35.26;33.92;100639.10;1744489;82;20908;-74
2021/06/30 09:07:28;;;;;;;4.42;3.58;;;;;;;35.54;33.78;100634.50;1743995;81;21058;-74
2021/06/30 09:09:56;;;;;;;4.20;3.12;;;;;;;35.87;32.66;100634.83;1744538;81;20889;-74
2021/06/30 09:12:40;;;;;;;5.97;3.55;;;;;;;36.19;32.39;100638.91;1744651;81;20980;-76
2021/06/30 09:15:18;;;;;;;5.10;3.27;;;;;;;36.47;31.34;100639.09;1744616;82;21819;-76
2021/06/30 09:17:47;;;;;;;4.05;3.50;;;;;;;36.71;31.05;100623.13;1744480;81;20913;-76
2021/06/30 09:20:14;;;;;;;8.65;3.83;;;;;;;36.95;31.36;100630.87;1744565;81;20893;-76
2021/06/30 09:22:51;;;;;;;9.33;3.92;;;;;;;37.10;30.85;100627.40;1744739;80;21430;-77
2021/06/30 09:25:30;;;;;;;249.40;35.20;;;;;;;37.23;30.90;100631.55;1744903;80;21019;-76
2021/06/30 09:27:57;;;;;;;11.85;5.05;;;;;;;37.30;32.06;100626.63;1744477;82;21162;-76
2021/06/30 09:30:26;;;;;;;12.03;3.58;;;;;;;37.11;32.04;100616.76;1744317;81;20896;-76
2021/06/30 09:33:01;;;;;;;5.10;3.02;;;;;;;36.99;32.40;100626.51;1744756;80;20913;-76
2021/06/30 09:35:34;;;;;;;6.55;3.25;;;;;;;36.75;32.53;100627.50;1744778;80;20987;-78
2021/06/30 09:38:31;;;;;;;4.65;3.00;;;;;;;36.57;32.13;100623.30;1744899;81;21434;-80
2021/06/30 09:40:58;;;;;;;3.17;2.70;;;;;;;36.19;31.94;100623.08;1745195;81;22152;-78
2021/06/30 09:43:32;;;;;;;4.05;2.92;;;;;;;36.15;32.84;100623.31;1745568;82;20861;-76
2021/06/30 09:46:03;;;;;;;5.03;3.30;;;;;;;35.93;33.13;100615.20;1746169;81;21572;-75
2021/06/30 09:48:34;;;;;;;4.35;2.90;;;;;;;35.59;32.79;100621.71;1657675;84;20972;-76
2021/06/30 09:51:04;;;;;;;4.83;2.95;;;;;;;35.54;33.13;100616.77;1708729;84;20956;-77
2021/06/30 09:53:39;;;;;;;6.62;3.37;;;;;;;35.46;33.75;100617.52;1744647;80;21828;-76
2021/06/30 09:56:33;;;;;;;7.28;3.45;;;;;;;35.43;33.26;100609.84;1744971;82;20893;-79
2021/06/30 09:59:24;;;;;;;5.45;4.03;;;;;;;35.28;33.09;100611.89;1744443;81;20940;-78
2021/06/30 10:02:00;;;;;;;5.90;4.12;;;;;;;35.01;32.69;100615.08;1744836;82;21023;-77
2021/06/30 10:04:36;;;;;;;4.78;3.67;;;;;;;34.87;33.09;100607.29;1744195;80;20857;-79
2021/06/30 10:07:14;;;;;;;6.37;4.20;;;;;;;34.84;33.09;100614.62;1744923;81;21765;-75
2021/06/30 10:09:58;;;;;;;75.10;11.40;;;;;;;34.79;33.51;100609.63;1744393;82;20944;-77
2021/06/30 10:12:27;;;;;;;12.25;4.47;;;;;;;34.62;33.48;100611.07;1744179;80;20924;-79
2021/06/30 10:14:56;;;;;;;5.60;3.62;;;;;;;34.63;35.06;100607.26;1744618;81;20929;-76
2021/06/30 10:17:23;;;;;;;4.00;3.55;;;;;;;34.42;34.92;100606.14;1744691;81;20925;-76
2021/06/30 10:19:52;;;;;;;4.37;3.85;;;;;;;34.29;33.84;100608.67;1744583;82;21594;-77
2021/06/30 10:22:19;;;;;;;9.93;4.45;;;;;;;33.96;33.65;100599.43;1744501;80;20930;-77
2021/06/30 10:24:47;;;;;;;10.08;4.28;;;;;;;33.61;34.74;100605.09;1744540;81;21392;-74
2021/06/30 10:27:14;;;;;;;13.53;5.22;;;;;;;33.17;35.97;100602.94;1744465;80;20854;-74
2021/06/30 10:29:53;;;;;;;143.17;19.70;;;;;;;32.77;37.11;100605.09;1744523;80;21414;-75
2021/06/30 10:32:20;;;;;;;15.13;4.78;;;;;;;32.56;36.95;100600.28;1744522;80;21158;-73
2021/06/30 10:34:52;;;;;;;5.03;3.45;;;;;;;32.48;37.75;100595.99;1744520;81;20901;-74
2021/06/30 10:37:35;;;;;;;4.20;3.58;;;;;;;32.67;37.43;100594.00;1708790;84;20976;-74
2021/06/30 10:40:09;;;;;;;6.97;3.72;;;;;;;32.68;37.52;100589.39;1709024;84;20904;-76
2021/06/30 10:42:49;;;;;;;4.15;3.75;;;;;;;32.66;37.09;100586.09;1708751;82;20903;-76
2021/06/30 10:45:23;;;;;;;3.37;3.08;;;;;;;32.53;38.54;100585.30;1743562;81;21170;-76
2021/06/30 10:47:57;;;;;;;6.85;3.60;;;;;;;32.32;39.50;100583.97;1744549;82;20901;-75
2021/06/30 10:50:37;;;;;;;4.85;3.67;;;;;;;32.06;39.58;100581.23;1744439;81;20937;-75
2021/06/30 10:53:14;;;;;;;4.15;2.98;;;;;;;31.81;40.01;100586.81;1744609;80;21015;-77
2021/06/30 10:55:51;;;;;;;8.68;3.35;;;;;;;31.57;39.69;100581.86;1744517;82;20999;-79
2021/06/30 10:58:22;;;;;;;20.32;6.08;;;;;;;31.52;40.11;100580.39;1744502;82;21371;-78
2021/06/30 11:01:02;;;;;;;5.55;3.87;;;;;;;31.64;40.62;100564.98;1744132;80;20909;-78
2021/06/30 11:03:39;;;;;;;5.85;3.05;;;;;;;31.75;40.61;100561.97;1744690;82;20912;-75
2021/06/30 11:06:21;;;;;;;7.37;3.12;;;;;;;31.98;39.92;100560.69;1741988;81;21013;-75
2021/06/30 11:08:51;;;;;;;7.97;3.40;;;;;;;32.28;38.81;100552.94;1744383;81;21592;-79
2021/06/30 11:11:31;;;;;;;5.40;2.90;;;;;;;32.61;38.35;100552.32;1745031;80;21054;-77
2021/06/30 11:14:13;;;;;;;10.98;4.25;;;;;;;32.70;37.83;100556.03;1729312;81;22601;-78
2021/06/30 11:16:49;;;;;;;4.28;3.17;;;;;;;32.71;38.33;100553.62;1744683;82;20984;-78
2021/06/30 11:19:23;;;;;;;7.92;3.62;;;;;;;32.65;38.53;100552.67;1744842;82;20929;-78
2021/06/30 11:21:59;;;;;;;4.00;2.72;;;;;;;32.56;37.71;100540.00;1744789;82;20867;-78
2021/06/30 11:24:47;;;;;;;3.55;2.87;;;;;;;32.58;38.19;100541.13;1744399;82;21131;-78
2021/06/30 11:27:25;;;;;;;7.90;2.85;;;;;;;32.67;38.13;100542.94;1744812;82;21014;-79
2021/06/30 11:30:02;;;;;;;5.08;2.47;;;;;;;32.64;37.60;100542.89;1749190;80;20896;-78
2021/06/30 11:32:42;;;;;;;2.98;2.10;;;;;;;32.52;38.21;100538.83;1757674;81;21481;-78
2021/06/30 11:35:26;;;;;;;6.00;2.72;;;;;;;32.31;37.38;100529.95;1758247;80;20967;-79